sensor_id;sensor_type;location;lat;lon;timestamp;P1;durP1;ratioP1;P2;durP2;ratioP2
25125;SDS011;13106;50.808;5.670;2023-04-28T00:02:00;23.85;;;17.15;;
25125;SDS011;13106;50.808;5.670;2023-04-28T00:04:27;24.45;;;16.80;;
25125;SDS011;13106;50.808;5.670;2023-04-28T00:06:53;26.67;;;17.33;;
25125;SDS011;13106;50.808;5.670;2023-04-28T00:09:19;22.08;;;16.77;;
25125;SDS011;13106;50.808;5.670;2023-04-28T00:11:45;28.27;;;18.08;;
25125;SDS011;13106;50.808;5.670;2023-04-28T00:14:11;26.60;;;16.92;;
25125;SDS011;13106;50.808;5.670;2023-04-28T00:16:37;27.23;;;21.98;;
25125;SDS011;13106;50.808;5.670;2023-04-28T00:19:03;25.08;;;16.95;;
25125;SDS011;13106;50.808;5.670;2023-04-28T00:21:29;25.58;;;18.40;;
25125;SDS011;13106;50.808;5.670;2023-04-28T00:23:56;29.85;;;18.90;;
25125;SDS011;13106;50.808;5.670;2023-04-28T00:26:22;24.10;;;17.45;;
25125;SDS011;13106;50.808;5.670;2023-04-28T00:28:48;26.23;;;17.40;;
25125;SDS011;13106;50.808;5.670;2023-04-28T00:31:14;23.00;;;17.27;;
25125;SDS011;13106;50.808;5.670;2023-04-28T00:33:40;25.67;;;15.93;;
25125;SDS011;13106;50.808;5.670;2023-04-28T00:36:07;24.02;;;15.68;;
25125;SDS011;13106;50.808;5.670;2023-04-28T00:38:33;23.92;;;15.43;;
25125;SDS011;13106;50.808;5.670;2023-04-28T00:40:59;25.35;;;16.30;;
25125;SDS011;13106;50.808;5.670;2023-04-28T00:43:25;23.33;;;16.40;;
25125;SDS011;13106;50.808;5.670;2023-04-28T00:45:52;26.60;;;15.32;;
25125;SDS011;13106;50.808;5.670;2023-04-28T00:48:18;22.67;;;15.07;;
25125;SDS011;13106;50.808;5.670;2023-04-28T00:50:44;21.42;;;14.40;;
25125;SDS011;13106;50.808;5.670;2023-04-28T00:53:11;24.85;;;15.68;;
25125;SDS011;13106;50.808;5.670;2023-04-28T00:55:37;23.25;;;15.10;;
25125;SDS011;13106;50.808;5.670;2023-04-28T00:58:04;21.95;;;15.43;;
25125;SDS011;13106;50.808;5.670;2023-04-28T01:00:30;24.23;;;14.98;;
25125;SDS011;13106;50.808;5.670;2023-04-28T01:02:56;23.88;;;15.57;;
25125;SDS011;13106;50.808;5.670;2023-04-28T01:05:26;26.60;;;17.05;;
25125;SDS011;13106;50.808;5.670;2023-04-28T01:07:53;27.70;;;16.33;;
25125;SDS011;13106;50.808;5.670;2023-04-28T01:10:19;29.65;;;18.10;;
25125;SDS011;13106;50.808;5.670;2023-04-28T01:12:45;30.90;;;23.17;;
25125;SDS011;13106;50.808;5.670;2023-04-28T01:15:16;30.40;;;16.15;;
25125;SDS011;13106;50.808;5.670;2023-04-28T01:17:42;26.45;;;16.35;;
25125;SDS011;13106;50.808;5.670;2023-04-28T01:20:08;26.85;;;17.23;;
25125;SDS011;13106;50.808;5.670;2023-04-28T01:22:35;34.63;;;16.27;;
25125;SDS011;13106;50.808;5.670;2023-04-28T01:25:01;24.65;;;16.70;;
25125;SDS011;13106;50.808;5.670;2023-04-28T01:27:28;23.67;;;16.10;;
25125;SDS011;13106;50.808;5.670;2023-04-28T01:29:54;28.05;;;18.55;;
25125;SDS011;13106;50.808;5.670;2023-04-28T01:32:21;27.05;;;18.63;;
25125;SDS011;13106;50.808;5.670;2023-04-28T01:34:47;27.73;;;17.77;;
25125;SDS011;13106;50.808;5.670;2023-04-28T01:37:13;27.20;;;18.70;;
25125;SDS011;13106;50.808;5.670;2023-04-28T01:39:39;30.05;;;19.42;;
25125;SDS011;13106;50.808;5.670;2023-04-28T01:42:05;27.83;;;19.42;;
25125;SDS011;13106;50.808;5.670;2023-04-28T01:44:31;29.05;;;18.80;;
25125;SDS011;13106;50.808;5.670;2023-04-28T01:46:57;28.50;;;18.38;;
25125;SDS011;13106;50.808;5.670;2023-04-28T01:49:23;30.15;;;19.33;;
25125;SDS011;13106;50.808;5.670;2023-04-28T01:51:49;27.00;;;18.50;;
25125;SDS011;13106;50.808;5.670;2023-04-28T01:54:15;32.08;;;18.48;;
25125;SDS011;13106;50.808;5.670;2023-04-28T01:56:41;29.13;;;18.35;;
25125;SDS011;13106;50.808;5.670;2023-04-28T01:59:07;30.75;;;18.52;;
25125;SDS011;13106;50.808;5.670;2023-04-28T02:01:33;29.85;;;18.85;;
25125;SDS011;13106;50.808;5.670;2023-04-28T02:03:59;27.42;;;17.90;;
25125;SDS011;13106;50.808;5.670;2023-04-28T02:06:25;22.73;;;16.70;;
25125;SDS011;13106;50.808;5.670;2023-04-28T02:08:52;25.40;;;18.00;;
25125;SDS011;13106;50.808;5.670;2023-04-28T02:11:18;25.92;;;18.40;;
25125;SDS011;13106;50.808;5.670;2023-04-28T02:13:44;27.50;;;18.52;;
25125;SDS011;13106;50.808;5.670;2023-04-28T02:16:10;30.90;;;18.90;;
25125;SDS011;13106;50.808;5.670;2023-04-28T02:18:36;28.55;;;18.10;;
25125;SDS011;13106;50.808;5.670;2023-04-28T02:21:11;29.73;;;17.90;;
25125;SDS011;13106;50.808;5.670;2023-04-28T02:23:38;21.63;;;17.25;;
25125;SDS011;13106;50.808;5.670;2023-04-28T02:26:04;24.48;;;17.83;;
25125;SDS011;13106;50.808;5.670;2023-04-28T02:28:30;22.80;;;17.05;;
25125;SDS011;13106;50.808;5.670;2023-04-28T02:31:03;29.35;;;18.25;;
25125;SDS011;13106;50.808;5.670;2023-04-28T02:33:30;26.63;;;18.42;;
25125;SDS011;13106;50.808;5.670;2023-04-28T02:36:03;27.15;;;19.40;;
25125;SDS011;13106;50.808;5.670;2023-04-28T02:38:29;23.20;;;17.27;;
25125;SDS011;13106;50.808;5.670;2023-04-28T02:40:59;27.17;;;18.08;;
25125;SDS011;13106;50.808;5.670;2023-04-28T02:43:26;23.30;;;17.50;;
25125;SDS011;13106;50.808;5.670;2023-04-28T02:45:52;27.23;;;17.50;;
25125;SDS011;13106;50.808;5.670;2023-04-28T02:48:18;25.77;;;18.63;;
25125;SDS011;13106;50.808;5.670;2023-04-28T02:50:44;26.88;;;19.42;;
25125;SDS011;13106;50.808;5.670;2023-04-28T02:53:11;29.15;;;17.55;;
25125;SDS011;13106;50.808;5.670;2023-04-28T02:55:37;29.33;;;18.38;;
25125;SDS011;13106;50.808;5.670;2023-04-28T02:58:03;30.45;;;19.52;;
25125;SDS011;13106;50.808;5.670;2023-04-28T03:00:29;28.92;;;20.40;;
25125;SDS011;13106;50.808;5.670;2023-04-28T03:02:55;28.20;;;19.35;;
25125;SDS011;13106;50.808;5.670;2023-04-28T03:05:21;27.38;;;19.23;;
25125;SDS011;13106;50.808;5.670;2023-04-28T03:07:47;31.05;;;19.75;;
25125;SDS011;13106;50.808;5.670;2023-04-28T03:10:13;28.33;;;20.25;;
25125;SDS011;13106;50.808;5.670;2023-04-28T03:12:39;32.42;;;20.88;;
25125;SDS011;13106;50.808;5.670;2023-04-28T03:15:06;31.25;;;21.60;;
25125;SDS011;13106;50.808;5.670;2023-04-28T03:17:33;32.17;;;21.50;;
25125;SDS011;13106;50.808;5.670;2023-04-28T03:20:00;29.48;;;18.75;;
25125;SDS011;13106;50.808;5.670;2023-04-28T03:22:27;25.83;;;18.38;;
25125;SDS011;13106;50.808;5.670;2023-04-28T03:24:53;28.70;;;18.55;;
25125;SDS011;13106;50.808;5.670;2023-04-28T03:27:19;28.13;;;19.02;;
25125;SDS011;13106;50.808;5.670;2023-04-28T03:29:45;35.13;;;18.90;;
25125;SDS011;13106;50.808;5.670;2023-04-28T03:32:11;33.17;;;18.35;;
25125;SDS011;13106;50.808;5.670;2023-04-28T03:34:38;27.95;;;17.05;;
25125;SDS011;13106;50.808;5.670;2023-04-28T03:37:04;24.95;;;16.65;;
25125;SDS011;13106;50.808;5.670;2023-04-28T03:39:30;24.50;;;16.15;;
25125;SDS011;13106;50.808;5.670;2023-04-28T03:41:56;24.08;;;15.23;;
25125;SDS011;13106;50.808;5.670;2023-04-28T03:44:22;26.63;;;17.40;;
25125;SDS011;13106;50.808;5.670;2023-04-28T03:46:48;25.15;;;16.42;;
25125;SDS011;13106;50.808;5.670;2023-04-28T03:49:14;24.35;;;15.43;;
25125;SDS011;13106;50.808;5.670;2023-04-28T03:51:41;19.30;;;14.05;;
25125;SDS011;13106;50.808;5.670;2023-04-28T03:54:07;23.80;;;14.75;;
25125;SDS011;13106;50.808;5.670;2023-04-28T03:56:33;21.33;;;14.52;;
25125;SDS011;13106;50.808;5.670;2023-04-28T03:58:59;25.75;;;15.95;;
25125;SDS011;13106;50.808;5.670;2023-04-28T04:01:25;29.85;;;16.15;;
25125;SDS011;13106;50.808;5.670;2023-04-28T04:03:51;27.02;;;16.77;;
25125;SDS011;13106;50.808;5.670;2023-04-28T04:06:17;23.67;;;16.77;;
25125;SDS011;13106;50.808;5.670;2023-04-28T04:08:43;26.95;;;16.85;;
25125;SDS011;13106;50.808;5.670;2023-04-28T04:11:10;26.98;;;17.00;;
25125;SDS011;13106;50.808;5.670;2023-04-28T04:13:36;27.50;;;17.13;;
25125;SDS011;13106;50.808;5.670;2023-04-28T04:16:02;29.35;;;17.30;;
25125;SDS011;13106;50.808;5.670;2023-04-28T04:18:28;31.20;;;18.45;;
25125;SDS011;13106;50.808;5.670;2023-04-28T04:20:54;28.90;;;17.10;;
25125;SDS011;13106;50.808;5.670;2023-04-28T04:23:21;28.80;;;18.10;;
25125;SDS011;13106;50.808;5.670;2023-04-28T04:25:47;28.58;;;17.80;;
25125;SDS011;13106;50.808;5.670;2023-04-28T04:28:13;28.40;;;18.38;;
25125;SDS011;13106;50.808;5.670;2023-04-28T04:30:39;27.38;;;17.27;;
25125;SDS011;13106;50.808;5.670;2023-04-28T04:33:05;31.48;;;18.30;;
25125;SDS011;13106;50.808;5.670;2023-04-28T04:35:32;26.02;;;16.08;;
25125;SDS011;13106;50.808;5.670;2023-04-28T04:37:58;24.63;;;17.02;;
25125;SDS011;13106;50.808;5.670;2023-04-28T04:40:25;26.33;;;16.98;;
25125;SDS011;13106;50.808;5.670;2023-04-28T04:42:51;29.20;;;17.85;;
25125;SDS011;13106;50.808;5.670;2023-04-28T04:45:17;26.67;;;17.88;;
25125;SDS011;13106;50.808;5.670;2023-04-28T04:47:43;25.13;;;18.40;;
25125;SDS011;13106;50.808;5.670;2023-04-28T04:50:09;24.98;;;16.55;;
25125;SDS011;13106;50.808;5.670;2023-04-28T04:52:36;26.98;;;18.02;;
25125;SDS011;13106;50.808;5.670;2023-04-28T04:55:02;25.90;;;16.88;;
25125;SDS011;13106;50.808;5.670;2023-04-28T04:57:28;24.40;;;17.55;;
25125;SDS011;13106;50.808;5.670;2023-04-28T04:59:54;26.02;;;16.13;;
25125;SDS011;13106;50.808;5.670;2023-04-28T05:02:20;26.48;;;17.70;;
25125;SDS011;13106;50.808;5.670;2023-04-28T05:04:47;20.75;;;15.52;;
25125;SDS011;13106;50.808;5.670;2023-04-28T05:07:13;21.65;;;15.70;;
25125;SDS011;13106;50.808;5.670;2023-04-28T05:09:39;24.60;;;16.10;;
25125;SDS011;13106;50.808;5.670;2023-04-28T05:12:05;23.67;;;16.35;;
25125;SDS011;13106;50.808;5.670;2023-04-28T05:14:31;24.80;;;16.33;;
25125;SDS011;13106;50.808;5.670;2023-04-28T05:16:57;24.77;;;17.05;;
25125;SDS011;13106;50.808;5.670;2023-04-28T05:19:23;25.25;;;17.60;;
25125;SDS011;13106;50.808;5.670;2023-04-28T05:21:49;24.67;;;17.95;;
25125;SDS011;13106;50.808;5.670;2023-04-28T05:24:19;24.20;;;16.42;;
25125;SDS011;13106;50.808;5.670;2023-04-28T05:26:47;23.92;;;16.48;;
25125;SDS011;13106;50.808;5.670;2023-04-28T05:29:13;21.00;;;14.25;;
25125;SDS011;13106;50.808;5.670;2023-04-28T05:31:39;20.42;;;15.25;;
25125;SDS011;13106;50.808;5.670;2023-04-28T05:34:05;20.00;;;14.60;;
25125;SDS011;13106;50.808;5.670;2023-04-28T05:36:31;18.15;;;13.73;;
25125;SDS011;13106;50.808;5.670;2023-04-28T05:38:57;19.80;;;13.45;;
25125;SDS011;13106;50.808;5.670;2023-04-28T05:41:24;24.30;;;14.10;;
25125;SDS011;13106;50.808;5.670;2023-04-28T05:43:50;23.77;;;14.85;;
25125;SDS011;13106;50.808;5.670;2023-04-28T05:46:16;23.50;;;15.20;;
25125;SDS011;13106;50.808;5.670;2023-04-28T05:48:42;17.98;;;13.45;;
25125;SDS011;13106;50.808;5.670;2023-04-28T05:51:08;19.77;;;14.75;;
25125;SDS011;13106;50.808;5.670;2023-04-28T05:53:35;23.27;;;16.92;;
25125;SDS011;13106;50.808;5.670;2023-04-28T05:56:01;23.80;;;16.70;;
25125;SDS011;13106;50.808;5.670;2023-04-28T05:58:27;22.75;;;20.45;;
25125;SDS011;13106;50.808;5.670;2023-04-28T06:00:54;26.25;;;16.40;;
25125;SDS011;13106;50.808;5.670;2023-04-28T06:03:20;23.30;;;20.88;;
25125;SDS011;13106;50.808;5.670;2023-04-28T06:05:46;21.90;;;15.00;;
25125;SDS011;13106;50.808;5.670;2023-04-28T06:08:12;20.20;;;15.25;;
25125;SDS011;13106;50.808;5.670;2023-04-28T06:10:38;24.30;;;16.13;;
25125;SDS011;13106;50.808;5.670;2023-04-28T06:13:04;25.15;;;16.08;;
25125;SDS011;13106;50.808;5.670;2023-04-28T06:15:30;22.10;;;15.68;;
25125;SDS011;13106;50.808;5.670;2023-04-28T06:17:57;16.27;;;12.00;;
25125;SDS011;13106;50.808;5.670;2023-04-28T06:20:23;18.42;;;12.07;;
25125;SDS011;13106;50.808;5.670;2023-04-28T06:22:49;17.40;;;12.65;;
25125;SDS011;13106;50.808;5.670;2023-04-28T06:25:15;16.85;;;12.15;;
25125;SDS011;13106;50.808;5.670;2023-04-28T06:27:41;14.13;;;10.05;;
25125;SDS011;13106;50.808;5.670;2023-04-28T06:30:08;12.38;;;9.15;;
25125;SDS011;13106;50.808;5.670;2023-04-28T06:32:34;12.23;;;8.75;;
25125;SDS011;13106;50.808;5.670;2023-04-28T06:35:00;12.43;;;8.43;;
25125;SDS011;13106;50.808;5.670;2023-04-28T06:37:26;12.77;;;8.52;;
25125;SDS011;13106;50.808;5.670;2023-04-28T06:39:52;12.23;;;8.32;;
25125;SDS011;13106;50.808;5.670;2023-04-28T06:42:18;15.63;;;9.43;;
25125;SDS011;13106;50.808;5.670;2023-04-28T06:44:44;15.07;;;8.93;;
25125;SDS011;13106;50.808;5.670;2023-04-28T06:47:10;11.32;;;9.05;;
25125;SDS011;13106;50.808;5.670;2023-04-28T06:49:36;14.10;;;9.75;;
25125;SDS011;13106;50.808;5.670;2023-04-28T06:52:02;16.27;;;9.68;;
25125;SDS011;13106;50.808;5.670;2023-04-28T06:54:28;15.10;;;10.38;;
25125;SDS011;13106;50.808;5.670;2023-04-28T06:56:55;17.88;;;10.02;;
25125;SDS011;13106;50.808;5.670;2023-04-28T06:59:21;17.95;;;10.30;;
25125;SDS011;13106;50.808;5.670;2023-04-28T07:01:47;16.38;;;9.77;;
25125;SDS011;13106;50.808;5.670;2023-04-28T07:04:13;16.60;;;10.35;;
25125;SDS011;13106;50.808;5.670;2023-04-28T07:06:39;16.23;;;9.15;;
25125;SDS011;13106;50.808;5.670;2023-04-28T07:09:05;15.73;;;10.40;;
25125;SDS011;13106;50.808;5.670;2023-04-28T07:11:31;17.35;;;9.30;;
25125;SDS011;13106;50.808;5.670;2023-04-28T07:13:57;19.08;;;9.55;;
25125;SDS011;13106;50.808;5.670;2023-04-28T07:16:24;14.93;;;9.43;;
25125;SDS011;13106;50.808;5.670;2023-04-28T07:18:51;20.80;;;9.73;;
25125;SDS011;13106;50.808;5.670;2023-04-28T07:21:17;18.33;;;10.10;;
25125;SDS011;13106;50.808;5.670;2023-04-28T07:23:43;18.08;;;10.43;;
25125;SDS011;13106;50.808;5.670;2023-04-28T07:26:10;17.85;;;9.98;;
25125;SDS011;13106;50.808;5.670;2023-04-28T07:28:36;14.30;;;9.50;;
25125;SDS011;13106;50.808;5.670;2023-04-28T07:31:02;14.23;;;8.55;;
25125;SDS011;13106;50.808;5.670;2023-04-28T07:33:28;12.95;;;8.55;;
25125;SDS011;13106;50.808;5.670;2023-04-28T07:35:54;11.88;;;7.30;;
25125;SDS011;13106;50.808;5.670;2023-04-28T07:38:20;14.40;;;8.77;;
25125;SDS011;13106;50.808;5.670;2023-04-28T07:40:46;8.30;;;5.93;;
25125;SDS011;13106;50.808;5.670;2023-04-28T07:43:12;5.97;;;5.05;;
25125;SDS011;13106;50.808;5.670;2023-04-28T07:45:38;6.72;;;5.60;;
25125;SDS011;13106;50.808;5.670;2023-04-28T07:48:05;7.97;;;6.80;;
25125;SDS011;13106;50.808;5.670;2023-04-28T07:50:31;5.07;;;4.20;;
25125;SDS011;13106;50.808;5.670;2023-04-28T07:52:57;7.22;;;6.53;;
25125;SDS011;13106;50.808;5.670;2023-04-28T07:55:23;6.40;;;5.75;;
25125;SDS011;13106;50.808;5.670;2023-04-28T07:57:49;6.85;;;4.80;;
25125;SDS011;13106;50.808;5.670;2023-04-28T08:00:16;5.88;;;5.28;;
25125;SDS011;13106;50.808;5.670;2023-04-28T08:02:43;5.50;;;4.90;;
25125;SDS011;13106;50.808;5.670;2023-04-28T08:05:09;6.45;;;4.90;;
25125;SDS011;13106;50.808;5.670;2023-04-28T08:07:35;5.57;;;5.00;;
25125;SDS011;13106;50.808;5.670;2023-04-28T08:10:02;7.80;;;5.65;;
25125;SDS011;13106;50.808;5.670;2023-04-28T08:12:28;6.22;;;5.63;;
25125;SDS011;13106;50.808;5.670;2023-04-28T08:14:55;6.10;;;5.03;;
25125;SDS011;13106;50.808;5.670;2023-04-28T08:17:21;6.53;;;5.57;;
25125;SDS011;13106;50.808;5.670;2023-04-28T08:19:54;7.80;;;6.45;;
25125;SDS011;13106;50.808;5.670;2023-04-28T08:22:20;9.65;;;8.75;;
25125;SDS011;13106;50.808;5.670;2023-04-28T08:24:46;7.93;;;7.32;;
25125;SDS011;13106;50.808;5.670;2023-04-28T08:27:12;12.88;;;11.55;;
25125;SDS011;13106;50.808;5.670;2023-04-28T08:29:38;16.38;;;15.27;;
25125;SDS011;13106;50.808;5.670;2023-04-28T08:32:04;9.85;;;9.15;;
25125;SDS011;13106;50.808;5.670;2023-04-28T08:34:31;14.65;;;13.70;;
25125;SDS011;13106;50.808;5.670;2023-04-28T08:36:57;18.80;;;17.42;;
25125;SDS011;13106;50.808;5.670;2023-04-28T08:39:23;6.70;;;6.10;;
25125;SDS011;13106;50.808;5.670;2023-04-28T08:41:51;5.28;;;4.78;;
25125;SDS011;13106;50.808;5.670;2023-04-28T08:44:17;6.05;;;5.55;;
25125;SDS011;13106;50.808;5.670;2023-04-28T08:46:43;6.20;;;5.60;;
25125;SDS011;13106;50.808;5.670;2023-04-28T08:49:13;5.50;;;5.00;;
25125;SDS011;13106;50.808;5.670;2023-04-28T08:51:44;5.95;;;5.45;;
25125;SDS011;13106;50.808;5.670;2023-04-28T08:54:12;5.28;;;4.88;;
25125;SDS011;13106;50.808;5.670;2023-04-28T08:56:39;5.30;;;4.80;;
25125;SDS011;13106;50.808;5.670;2023-04-28T08:59:09;4.72;;;4.32;;
25125;SDS011;13106;50.808;5.670;2023-04-28T09:01:38;6.63;;;4.88;;
25125;SDS011;13106;50.808;5.670;2023-04-28T09:04:04;4.43;;;3.88;;
25125;SDS011;13106;50.808;5.670;2023-04-28T09:06:34;4.15;;;3.47;;
25125;SDS011;13106;50.808;5.670;2023-04-28T09:11:52;4.03;;;3.63;;
25125;SDS011;13106;50.808;5.670;2023-04-28T09:14:19;4.30;;;3.90;;
25125;SDS011;13106;50.808;5.670;2023-04-28T09:16:45;3.85;;;3.50;;
25125;SDS011;13106;50.808;5.670;2023-04-28T09:19:11;4.93;;;4.15;;
25125;SDS011;13106;50.808;5.670;2023-04-28T09:26:55;5.30;;;3.53;;
25125;SDS011;13106;50.808;5.670;2023-04-28T09:29:21;6.32;;;5.82;;
25125;SDS011;13106;50.808;5.670;2023-04-28T09:31:48;7.45;;;6.95;;
25125;SDS011;13106;50.808;5.670;2023-04-28T09:34:14;3.30;;;3.00;;
25125;SDS011;13106;50.808;5.670;2023-04-28T09:36:41;3.35;;;3.05;;
25125;SDS011;13106;50.808;5.670;2023-04-28T09:39:07;3.45;;;2.63;;
25125;SDS011;13106;50.808;5.670;2023-04-28T09:41:36;3.17;;;2.10;;
25125;SDS011;13106;50.808;5.670;2023-04-28T09:44:15;3.58;;;2.95;;
25125;SDS011;13106;50.808;5.670;2023-04-28T09:46:43;3.10;;;2.80;;
25125;SDS011;13106;50.808;5.670;2023-04-28T09:49:09;3.22;;;2.92;;
25125;SDS011;13106;50.808;5.670;2023-04-28T09:51:35;3.63;;;3.33;;
25125;SDS011;13106;50.808;5.670;2023-04-28T09:54:02;4.28;;;3.88;;
25125;SDS011;13106;50.808;5.670;2023-04-28T09:56:35;4.03;;;3.63;;
25125;SDS011;13106;50.808;5.670;2023-04-28T09:59:02;3.33;;;3.03;;
25125;SDS011;13106;50.808;5.670;2023-04-28T10:01:47;4.35;;;2.72;;
25125;SDS011;13106;50.808;5.670;2023-04-28T10:04:13;4.13;;;3.72;;
25125;SDS011;13106;50.808;5.670;2023-04-28T10:06:39;3.10;;;2.85;;
25125;SDS011;13106;50.808;5.670;2023-04-28T10:09:06;3.83;;;3.22;;
25125;SDS011;13106;50.808;5.670;2023-04-28T10:11:32;3.63;;;2.97;;
25125;SDS011;13106;50.808;5.670;2023-04-28T10:13:58;3.00;;;2.70;;
25125;SDS011;13106;50.808;5.670;2023-04-28T10:16:25;3.08;;;2.75;;
25125;SDS011;13106;50.808;5.670;2023-04-28T10:18:55;3.42;;;3.10;;
25125;SDS011;13106;50.808;5.670;2023-04-28T10:21:21;2.70;;;2.50;;
25125;SDS011;13106;50.808;5.670;2023-04-28T10:26:19;3.00;;;2.70;;
25125;SDS011;13106;50.808;5.670;2023-04-28T10:28:48;3.85;;;2.90;;
25125;SDS011;13106;50.808;5.670;2023-04-28T10:31:16;5.03;;;3.17;;
25125;SDS011;13106;50.808;5.670;2023-04-28T10:33:42;3.40;;;3.10;;
25125;SDS011;13106;50.808;5.670;2023-04-28T10:36:08;3.28;;;2.97;;
25125;SDS011;13106;50.808;5.670;2023-04-28T10:38:35;2.78;;;2.40;;
25125;SDS011;13106;50.808;5.670;2023-04-28T10:41:02;3.38;;;2.50;;
25125;SDS011;13106;50.808;5.670;2023-04-28T10:45:58;2.40;;;2.20;;
25125;SDS011;13106;50.808;5.670;2023-04-28T10:56:09;3.63;;;2.80;;
25125;SDS011;13106;50.808;5.670;2023-04-28T10:58:36;4.03;;;3.55;;
25125;SDS011;13106;50.808;5.670;2023-04-28T11:08:48;4.03;;;3.50;;
25125;SDS011;13106;50.808;5.670;2023-04-28T11:11:17;3.55;;;3.22;;
25125;SDS011;13106;50.808;5.670;2023-04-28T11:16:14;4.28;;;3.58;;
25125;SDS011;13106;50.808;5.670;2023-04-28T11:18:56;4.35;;;3.95;;
25125;SDS011;13106;50.808;5.670;2023-04-28T11:21:23;5.00;;;4.50;;
25125;SDS011;13106;50.808;5.670;2023-04-28T11:23:52;5.53;;;5.03;;
25125;SDS011;13106;50.808;5.670;2023-04-28T11:26:18;6.20;;;5.30;;
25125;SDS011;13106;50.808;5.670;2023-04-28T11:28:54;10.18;;;7.55;;
25125;SDS011;13106;50.808;5.670;2023-04-28T11:31:22;5.50;;;5.00;;
25125;SDS011;13106;50.808;5.670;2023-04-28T11:33:50;5.40;;;4.95;;
25125;SDS011;13106;50.808;5.670;2023-04-28T11:36:23;4.32;;;3.60;;
25125;SDS011;13106;50.808;5.670;2023-04-28T11:38:49;4.00;;;3.65;;
25125;SDS011;13106;50.808;5.670;2023-04-28T11:41:15;3.60;;;3.30;;
25125;SDS011;13106;50.808;5.670;2023-04-28T11:43:41;2.85;;;2.53;;
25125;SDS011;13106;50.808;5.670;2023-04-28T11:46:07;2.90;;;2.00;;
25125;SDS011;13106;50.808;5.670;2023-04-28T11:48:34;2.35;;;2.00;;
25125;SDS011;13106;50.808;5.670;2023-04-28T11:51:00;2.28;;;2.08;;
25125;SDS011;13106;50.808;5.670;2023-04-28T11:53:42;2.17;;;1.70;;
25125;SDS011;13106;50.808;5.670;2023-04-28T11:56:08;1.98;;;1.83;;
25125;SDS011;13106;50.808;5.670;2023-04-28T11:58:36;3.90;;;2.00;;
25125;SDS011;13106;50.808;5.670;2023-04-28T12:01:11;3.38;;;1.90;;
25125;SDS011;13106;50.808;5.670;2023-04-28T12:03:44;3.47;;;2.17;;
25125;SDS011;13106;50.808;5.670;2023-04-28T12:06:10;3.22;;;1.90;;
25125;SDS011;13106;50.808;5.670;2023-04-28T12:08:36;2.58;;;2.05;;
25125;SDS011;13106;50.808;5.670;2023-04-28T12:11:09;2.50;;;2.30;;
25125;SDS011;13106;50.808;5.670;2023-04-28T12:13:35;2.08;;;1.88;;
25125;SDS011;13106;50.808;5.670;2023-04-28T12:16:03;1.90;;;1.40;;
25125;SDS011;13106;50.808;5.670;2023-04-28T12:18:32;1.30;;;1.20;;
25125;SDS011;13106;50.808;5.670;2023-04-28T12:20:59;1.35;;;1.25;;
25125;SDS011;13106;50.808;5.670;2023-04-28T12:23:29;2.75;;;1.45;;
25125;SDS011;13106;50.808;5.670;2023-04-28T12:25:58;2.50;;;1.70;;
25125;SDS011;13106;50.808;5.670;2023-04-28T12:28:37;2.20;;;2.00;;
25125;SDS011;13106;50.808;5.670;2023-04-28T12:31:07;1.90;;;1.80;;
25125;SDS011;13106;50.808;5.670;2023-04-28T12:33:34;2.00;;;1.80;;
25125;SDS011;13106;50.808;5.670;2023-04-28T12:36:03;2.47;;;1.75;;
25125;SDS011;13106;50.808;5.670;2023-04-28T12:38:32;3.88;;;1.65;;
25125;SDS011;13106;50.808;5.670;2023-04-28T12:40:58;2.78;;;1.75;;
25125;SDS011;13106;50.808;5.670;2023-04-28T12:43:24;3.22;;;1.70;;
25125;SDS011;13106;50.808;5.670;2023-04-28T12:45:53;3.40;;;1.50;;
25125;SDS011;13106;50.808;5.670;2023-04-28T12:48:20;2.88;;;1.50;;
25125;SDS011;13106;50.808;5.670;2023-04-28T12:50:48;2.28;;;1.40;;
25125;SDS011;13106;50.808;5.670;2023-04-28T12:53:15;2.33;;;1.05;;
25125;SDS011;13106;50.808;5.670;2023-04-28T12:55:41;3.47;;;1.08;;
25125;SDS011;13106;50.808;5.670;2023-04-28T12:58:07;1.83;;;1.30;;
25125;SDS011;13106;50.808;5.670;2023-04-28T13:00:33;3.63;;;0.90;;
25125;SDS011;13106;50.808;5.670;2023-04-28T13:02:59;0.93;;;0.88;;
25125;SDS011;13106;50.808;5.670;2023-04-28T13:05:25;1.52;;;1.15;;
25125;SDS011;13106;50.808;5.670;2023-04-28T13:07:52;1.67;;;1.30;;
25125;SDS011;13106;50.808;5.670;2023-04-28T13:10:18;1.33;;;1.23;;
25125;SDS011;13106;50.808;5.670;2023-04-28T13:12:47;1.58;;;1.42;;
25125;SDS011;13106;50.808;5.670;2023-04-28T13:15:13;1.52;;;1.40;;
25125;SDS011;13106;50.808;5.670;2023-04-28T13:17:39;3.17;;;1.27;;
25125;SDS011;13106;50.808;5.670;2023-04-28T13:20:05;1.60;;;1.50;;
25125;SDS011;13106;50.808;5.670;2023-04-28T13:22:31;3.70;;;1.10;;
25125;SDS011;13106;50.808;5.670;2023-04-28T13:24:57;4.50;;;1.00;;
25125;SDS011;13106;50.808;5.670;2023-04-28T13:27:23;2.70;;;0.98;;
25125;SDS011;13106;50.808;5.670;2023-04-28T13:29:49;2.53;;;1.38;;
25125;SDS011;13106;50.808;5.670;2023-04-28T13:32:16;7.43;;;1.13;;
25125;SDS011;13106;50.808;5.670;2023-04-28T13:34:42;0.75;;;0.73;;
25125;SDS011;13106;50.808;5.670;2023-04-28T13:37:08;3.50;;;0.80;;
25125;SDS011;13106;50.808;5.670;2023-04-28T13:39:35;4.22;;;1.02;;
25125;SDS011;13106;50.808;5.670;2023-04-28T13:42:01;1.90;;;1.15;;
25125;SDS011;13106;50.808;5.670;2023-04-28T13:44:27;0.75;;;0.73;;
25125;SDS011;13106;50.808;5.670;2023-04-28T13:46:53;0.90;;;0.90;;
25125;SDS011;13106;50.808;5.670;2023-04-28T13:49:20;0.65;;;0.63;;
25125;SDS011;13106;50.808;5.670;2023-04-28T13:51:47;1.90;;;0.63;;
25125;SDS011;13106;50.808;5.670;2023-04-28T13:54:13;2.28;;;0.65;;
25125;SDS011;13106;50.808;5.670;2023-04-28T13:56:40;1.95;;;0.63;;
25125;SDS011;13106;50.808;5.670;2023-04-28T13:59:06;1.27;;;0.75;;
25125;SDS011;13106;50.808;5.670;2023-04-28T14:01:32;1.15;;;0.60;;
25125;SDS011;13106;50.808;5.670;2023-04-28T14:03:58;0.65;;;0.40;;
25125;SDS011;13106;50.808;5.670;2023-04-28T14:06:25;1.00;;;0.52;;
25125;SDS011;13106;50.808;5.670;2023-04-28T14:08:51;3.33;;;0.80;;
25125;SDS011;13106;50.808;5.670;2023-04-28T14:11:17;0.70;;;0.55;;
25125;SDS011;13106;50.808;5.670;2023-04-28T14:13:43;2.72;;;0.50;;
25125;SDS011;13106;50.808;5.670;2023-04-28T14:16:10;1.55;;;1.02;;
25125;SDS011;13106;50.808;5.670;2023-04-28T14:18:36;1.50;;;1.33;;
25125;SDS011;13106;50.808;5.670;2023-04-28T14:21:02;2.83;;;2.60;;
25125;SDS011;13106;50.808;5.670;2023-04-28T14:23:32;3.83;;;2.15;;
25125;SDS011;13106;50.808;5.670;2023-04-28T14:25:59;2.67;;;2.15;;
25125;SDS011;13106;50.808;5.670;2023-04-28T14:28:25;2.00;;;1.80;;
25125;SDS011;13106;50.808;5.670;2023-04-28T14:30:52;4.55;;;1.60;;
25125;SDS011;13106;50.808;5.670;2023-04-28T14:33:18;5.00;;;1.90;;
25125;SDS011;13106;50.808;5.670;2023-04-28T14:35:44;3.20;;;2.20;;
25125;SDS011;13106;50.808;5.670;2023-04-28T14:38:11;2.60;;;2.40;;
25125;SDS011;13106;50.808;5.670;2023-04-28T14:40:37;2.80;;;2.60;;
25125;SDS011;13106;50.808;5.670;2023-04-28T14:43:03;3.88;;;2.50;;
25125;SDS011;13106;50.808;5.670;2023-04-28T14:45:30;2.30;;;2.10;;
25125;SDS011;13106;50.808;5.670;2023-04-28T14:47:56;3.53;;;2.03;;
25125;SDS011;13106;50.808;5.670;2023-04-28T14:50:22;3.88;;;1.80;;
25125;SDS011;13106;50.808;5.670;2023-04-28T14:52:48;3.30;;;1.60;;
25125;SDS011;13106;50.808;5.670;2023-04-28T14:55:14;2.15;;;1.58;;
25125;SDS011;13106;50.808;5.670;2023-04-28T14:57:41;1.60;;;1.50;;
25125;SDS011;13106;50.808;5.670;2023-04-28T15:00:07;5.28;;;1.60;;
25125;SDS011;13106;50.808;5.670;2023-04-28T15:02:33;2.97;;;1.40;;